หน้าหลัก
METAR-TAF:

METAR-TAF

ท่าอากาศยาน :

เตหะราน, อิหร่าน

ละติจูด: 35-41N, ลองจิจูด: 051-21E, ความสูง: 1204 ม.

การสังเกตสภาพอากาศปัจจุบัน

รายงานได้ทำขึ้นเมื่อ 50 นาทีที่แล้ว ณ เวลา 23:30 UTC
ลม 4 นอตจากเหนือ/ตะวันออกเฉียงเหนือ
อุณหภูมิ 18°C
ความชื้น 22%
ความกดอากาศ 1012 hPa
ทัศนวิสัย 10 กม. หรือมากกว่า
ไม่มีเมฆต่ำกว่า 1,500 ม. และไม่มีเมฆคิวมูโลนิมบัส

METAR: OIII 182330Z 03004KT CAVOK 18/M04 Q1012 A2989

เวลา: 04:50 (00:20 UTC)

การพยากรณ์

รายงานได้ทำขึ้นเมื่อ 1 ชั่วโมงและ 20 นาทีที่แล้ว ณ เวลา 23:00 UTC
การพยากรณ์มีผลตั้งแต่วันที่ 19 ณ เวลา 00 UTC จนถึงวันที่ 20 ณ เวลา 06 UTC
ลม 6 นอตจากตะวันออกเฉียงเหนือ
ทัศนวิสัย: 8000 ม.
ชั่วคราว
ตั้งแต่วันที่ 19 ณ เวลา 09 UTC จนถึงวันที่ 19 ณ เวลา 17 UTC
ลม 18 นอตจากตะวันตก/ตะวันตกเฉียงใต้
มีเมฆน้อยที่ความสูง 4000 ฟุต, คิวมูโลนิมบัส.
มีเมฆกระจายเป็นบางส่วนที่ความสูง 4500 ฟุต

TAF: OIII 182300Z 1900/2006 04006KT 8000 NSC TEMPO 1909/1917 24018KT FEW040CB SCT045

สังเกตการณ์สภาพอากาศและพยากรณ์อากาศของสนามบินมากกว่า 4000 แห่ง (รายงาน METAR และ TAF).

สถานีที่ดูได้จะแสดงไว้ด้วยจุดสีเหลืองและสีแดงบนแผนที่.

เลื่อนเมาส์ไปเหนือจุดเพื่อดูชื่อสถานี.

แล้วคลิกเพื่อดูสังเกตการณ์และการพยากรณ์สภาพอากาศ.

ในการเปลี่ยนแผนที่: คลิกที่ปุ่มสีเขียวที่มีกากบาทสีดำเพื่อซูมเข้า; ที่ปุ่มสีเขียวที่มีขีดเพื่อซูมออก; หรือที่ลูกศรสีเขียวเพื่อไปยังแผนที่ที่อยู่ติดกัน.


METAR-TAF: